Time;durP1;ratioP1;P1;durP2;ratioP2;P2;SDS_P1;SDS_P2;PMS_P1;PMS_P2;Temp;Humidity;BMP_temperature;BMP_pressure;BME280_temperature;BME280_humidity;BME280_pressure;Samples;Min_cycle;Max_cycle;Signal;HPM_P1;HPM_P2
2022/12/10 00:01:05;;;;;;;103.53;31.55;;;3.10;94.20;;;;;;5033262;28;20108;-82
2022/12/10 00:03:30;;;;;;;100.03;33.30;;;3.10;94.30;;;;;;5026943;28;20156;-85
2022/12/10 00:06:00;;;;;;;103.33;33.43;;;3.10;94.50;;;;;;5029755;28;20112;-85
2022/12/10 00:08:25;;;;;;;109.55;32.38;;;3.10;94.40;;;;;;5029774;28;20070;-85
2022/12/10 00:10:51;;;;;;;126.30;37.80;;;3.00;94.60;;;;;;5029751;28;20752;-84
2022/12/10 00:13:16;;;;;;;125.37;37.37;;;3.00;95.30;;;;;;5030574;28;20030;-84
2022/12/10 00:15:42;;;;;;;101.63;35.10;;;3.10;95.00;;;;;;5030925;28;20551;-83
2022/12/10 00:18:08;;;;;;;108.50;38.13;;;3.00;95.00;;;;;;5029359;28;20035;-85
2022/12/10 00:20:35;;;;;;;114.17;35.60;;;3.10;94.80;;;;;;5032556;28;20120;-85
2022/12/10 00:23:01;;;;;;;112.47;34.75;;;3.10;94.60;;;;;;5029667;28;20519;-84
2022/12/10 00:25:26;;;;;;;101.67;33.03;;;3.10;94.70;;;;;;5034362;28;20124;-85
2022/12/10 00:27:52;;;;;;;101.17;32.23;;;3.10;94.80;;;;;;5031231;28;20032;-83
2022/12/10 00:30:17;;;;;;;107.07;33.93;;;3.00;94.70;;;;;;5033562;28;20052;-85
2022/12/10 00:32:43;;;;;;;93.90;30.50;;;3.00;94.80;;;;;;5032462;28;20409;-86
2022/12/10 00:35:09;;;;;;;91.80;32.30;;;3.00;94.70;;;;;;5033450;28;20099;-84
2022/12/10 00:37:34;;;;;;;94.17;29.37;;;3.00;94.80;;;;;;5033341;28;20484;-85
2022/12/10 00:40:00;;;;;;;89.03;32.80;;;3.00;94.70;;;;;;5032214;28;20044;-84
2022/12/10 00:42:25;;;;;;;82.47;29.93;;;3.10;94.70;;;;;;5033557;28;20287;-84
2022/12/10 00:44:51;;;;;;;76.17;27.60;;;3.00;94.70;;;;;;5033241;28;20645;-84
2022/12/10 00:47:17;;;;;;;95.53;30.00;;;3.10;94.80;;;;;;5031355;28;20448;-84
2022/12/10 00:49:42;;;;;;;81.67;28.97;;;3.10;94.70;;;;;;5032495;28;20033;-84
2022/12/10 00:52:08;;;;;;;84.87;29.40;;;3.10;94.60;;;;;;5032508;28;20398;-83
2022/12/10 00:54:33;;;;;;;83.17;30.00;;;3.10;94.50;;;;;;5032959;28;20053;-84
2022/12/10 00:56:59;;;;;;;81.70;28.13;;;3.10;94.40;;;;;;5032458;28;20264;-85
2022/12/10 00:59:25;;;;;;;81.30;27.17;;;3.10;94.50;;;;;;5038496;28;20042;-82
2022/12/10 01:01:50;;;;;;;86.28;30.70;;;3.10;94.70;;;;;;5030518;28;20064;-84
2022/12/10 01:04:17;;;;;;;70.90;27.33;;;3.10;94.60;;;;;;5033423;28;20045;-83
2022/12/10 01:06:46;;;;;;;73.82;27.13;;;3.10;94.60;;;;;;5032657;28;20100;-84
2022/12/10 01:09:14;;;;;;;69.07;25.77;;;3.10;94.60;;;;;;5030952;28;20409;-83
2022/12/10 01:11:41;;;;;;;75.40;28.48;;;3.10;94.50;;;;;;5030980;28;20053;-82
2022/12/10 01:14:11;;;;;;;76.45;28.30;;;3.10;94.50;;;;;;5032690;28;20053;-83
2022/12/10 01:16:37;;;;;;;81.82;28.30;;;3.10;94.60;;;;;;5031503;28;20028;-84
2022/12/10 01:19:04;;;;;;;80.47;29.70;;;3.10;94.50;;;;;;5032168;28;20037;-82
2022/12/10 01:21:30;;;;;;;83.57;30.35;;;3.10;94.40;;;;;;5032470;28;20021;-83
2022/12/10 01:23:57;;;;;;;76.93;28.98;;;3.10;94.50;;;;;;5032591;28;20037;-84
2022/12/10 01:26:25;;;;;;;77.90;29.52;;;3.10;94.70;;;;;;5032025;28;20030;-83
2022/12/10 01:28:52;;;;;;;79.90;27.77;;;3.10;94.90;;;;;;5031229;28;20032;-84
2022/12/10 01:31:20;;;;;;;;;;;3.00;94.80;;;;;;5031505;28;20033;-85
2022/12/10 01:33:47;;;;;;;76.40;25.90;;;3.10;94.90;;;;;;5031121;28;19913;-82
2022/12/10 01:36:16;;;;;;;79.03;29.38;;;3.10;94.80;;;;;;5032968;28;20041;-83
2022/12/10 01:38:42;;;;;;;75.70;28.17;;;3.00;94.80;;;;;;5031995;28;20053;-84
2022/12/10 01:41:13;;;;;;;60.80;24.23;;;3.10;94.80;;;;;;5032491;28;20583;-81
2022/12/10 01:44:00;;;;;;;73.75;25.77;;;3.00;94.60;;;;;;5031484;28;20021;-84
2022/12/10 01:46:37;;;;;;;74.63;28.23;;;3.00;94.90;;;;;;5031892;28;20068;-83
2022/12/10 01:49:06;;;;;;;68.32;23.85;;;3.00;94.60;;;;;;5029508;28;20095;-84
2022/12/10 01:51:34;;;;;;;73.60;25.40;;;3.00;94.70;;;;;;5030295;28;20013;-84
2022/12/10 01:54:01;;;;;;;74.57;26.85;;;3.00;94.90;;;;;;5031448;28;20041;-85
2022/12/10 01:56:27;;;;;;;66.65;24.40;;;3.00;94.80;;;;;;5030565;28;20038;-86
2022/12/10 01:58:56;;;;;;;68.30;25.85;;;3.10;94.60;;;;;;5031946;28;20116;-82
2022/12/10 02:01:30;;;;;;;68.50;25.13;;;3.10;94.80;;;;;;5037399;28;20030;-83
2022/12/10 02:03:59;;;;;;;62.42;23.00;;;3.10;94.70;;;;;;5027878;28;20029;-86
2022/12/10 02:06:43;;;;;;;62.05;22.58;;;2.90;94.90;;;;;;5030748;28;20045;-85
2022/12/10 02:09:34;;;;;;;73.43;25.83;;;3.00;94.90;;;;;;5030335;28;20041;-85
2022/12/10 02:12:19;;;;;;;68.95;24.92;;;3.10;94.80;;;;;;5028316;28;20556;-85
2022/12/10 02:14:53;;;;;;;63.58;23.95;;;3.10;94.70;;;;;;5023959;28;20064;-85
2022/12/10 02:17:27;;;;;;;66.07;24.38;;;3.00;94.70;;;;;;5030841;28;20025;-85
2022/12/10 02:19:55;;;;;;;67.78;24.88;;;3.10;94.50;;;;;;5029091;28;20037;-84
2022/12/10 02:22:23;;;;;;;69.90;24.90;;;3.10;94.50;;;;;;5033123;28;20440;-85
2022/12/10 02:24:51;;;;;;;70.43;25.73;;;3.10;94.40;;;;;;5035212;28;20505;-84
2022/12/10 02:27:34;;;;;;;76.45;24.40;;;3.00;94.30;;;;;;5031424;28;20030;-85
2022/12/10 02:30:01;;;;;;;73.20;26.05;;;3.00;94.60;;;;;;5031971;28;20400;-85
2022/12/10 02:32:33;;;;;;;67.53;23.27;;;3.00;94.20;;;;;;5031051;28;20080;-86
2022/12/10 02:35:04;;;;;;;77.03;26.33;;;3.00;94.60;;;;;;5029612;28;20045;-86
2022/12/10 02:37:51;;;;;;;83.70;27.55;;;3.00;94.50;;;;;;5031345;28;20048;-86
2022/12/10 02:40:24;;;;;;;79.80;27.00;;;3.00;94.60;;;;;;5029966;28;20393;-83
2022/12/10 02:42:51;;;;;;;94.50;28.35;;;3.00;94.60;;;;;;5029837;28;20036;-85
2022/12/10 02:45:19;;;;;;;72.55;25.83;;;2.90;94.80;;;;;;5030765;28;20053;-86
2022/12/10 02:47:46;;;;;;;69.82;26.00;;;2.90;94.70;;;;;;5031185;28;20401;-85
2022/12/10 02:50:15;;;;;;;65.88;25.40;;;2.90;94.90;;;;;;5038544;28;20029;-84
2022/12/10 02:52:41;;;;;;;66.35;25.92;;;2.90;94.50;;;;;;5023035;28;20030;-86
2022/12/10 02:55:11;;;;;;;65.83;25.80;;;2.90;94.50;;;;;;5038555;28;20043;-86
2022/12/10 02:58:03;;;;;;;67.70;27.20;;;2.90;94.40;;;;;;5029349;28;20026;-85
2022/12/10 03:00:34;;;;;;;63.75;25.20;;;2.90;94.40;;;;;;5029660;28;20090;-81
2022/12/10 03:03:18;;;;;;;63.72;24.42;;;2.90;94.50;;;;;;5029270;28;20025;-83
2022/12/10 03:06:02;;;;;;;58.78;26.40;;;2.90;94.40;;;;;;5029276;28;20087;-84
2022/12/10 03:08:38;;;;;;;55.85;24.88;;;3.00;94.20;;;;;;5030174;28;20051;-83
2022/12/10 03:11:27;;;;;;;65.43;26.08;;;3.00;94.20;;;;;;5026771;28;20037;-85
2022/12/10 03:13:55;;;;;;;64.57;26.55;;;2.90;94.40;;;;;;5029518;28;20049;-85
2022/12/10 03:16:23;;;;;;;66.22;27.55;;;3.00;94.40;;;;;;5030563;28;20041;-82
2022/12/10 03:19:01;;;;;;;64.95;27.45;;;3.00;94.30;;;;;;5030864;28;20026;-83
2022/12/10 03:21:30;;;;;;;64.57;29.40;;;2.90;94.20;;;;;;5026684;28;20743;-85
2022/12/10 03:23:55;;;;;;;64.30;27.40;;;2.90;94.20;;;;;;5028332;28;20037;-85
2022/12/10 03:26:22;;;;;;;73.45;30.92;;;2.80;93.80;;;;;;5029644;28;20038;-85
2022/12/10 03:28:52;;;;;;;68.50;31.55;;;2.80;93.90;;;;;;5029658;28;20053;-83
2022/12/10 03:31:19;;;;;;;66.50;29.00;;;2.80;93.60;;;;;;5014180;28;20021;-85
2022/12/10 03:33:47;;;;;;;62.92;29.58;;;2.80;93.70;;;;;;5029269;28;20060;-85
2022/12/10 03:36:13;;;;;;;62.20;28.73;;;2.80;93.70;;;;;;5028073;28;20017;-82
2022/12/10 03:38:41;;;;;;;61.47;29.30;;;2.80;93.70;;;;;;5030009;28;20551;-83
2022/12/10 03:41:06;;;;;;;66.85;30.77;;;2.80;93.80;;;;;;5030206;28;20164;-83
2022/12/10 03:43:32;;;;;;;60.67;28.90;;;2.70;94.00;;;;;;5028607;28;20714;-86
2022/12/10 03:45:58;;;;;;;70.22;31.00;;;2.70;93.70;;;;;;5031117;28;20025;-84
2022/12/10 03:48:23;;;;;;;71.77;31.13;;;2.70;94.00;;;;;;5029976;28;20041;-85
2022/12/10 03:50:49;;;;;;;67.37;30.83;;;2.80;94.10;;;;;;5030535;28;20041;-80
2022/12/10 03:53:15;;;;;;;66.73;29.97;;;2.80;93.90;;;;;;5032548;28;20100;-82
2022/12/10 03:55:40;;;;;;;70.00;32.37;;;2.80;93.90;;;;;;5032892;28;20103;-83
2022/12/10 03:58:06;;;;;;;70.90;31.53;;;2.80;94.10;;;;;;5033061;28;20346;-83
2022/12/10 04:00:31;;;;;;;59.10;29.10;;;2.80;93.90;;;;;;5033867;28;20412;-85
2022/12/10 04:02:57;;;;;;;62.13;28.60;;;2.70;93.80;;;;;;5033310;28;20038;-85
2022/12/10 04:05:22;;;;;;;63.43;27.97;;;2.70;94.50;;;;;;5034852;28;20037;-83
2022/12/10 04:07:48;;;;;;;63.97;28.67;;;2.70;94.20;;;;;;5034110;28;20112;-81
2022/12/10 04:10:14;;;;;;;63.33;28.83;;;2.60;94.10;;;;;;5033203;28;20390;-85
2022/12/10 04:12:39;;;;;;;63.40;29.75;;;2.60;94.10;;;;;;5032301;28;20105;-82
2022/12/10 04:17:50;;;;;;;66.65;29.75;;;2.60;94.10;;;;;;5028337;28;20857;-83
2022/12/10 04:28:28;;;;;;;65.50;30.60;;;2.50;94.30;;;;;;5032742;28;20103;-83
2022/12/10 04:30:53;;;;;;;59.27;28.03;;;2.50;94.10;;;;;;5033382;28;20045;-82
2022/12/10 04:33:19;;;;;;;66.00;31.03;;;2.40;93.80;;;;;;5034459;28;20292;-83
2022/12/10 04:35:45;;;;;;;63.23;30.43;;;2.40;94.00;;;;;;5032908;28;20041;-83
2022/12/10 04:38:10;;;;;;;65.13;32.63;;;2.40;93.90;;;;;;5032679;28;20029;-84
2022/12/10 04:40:36;;;;;;;62.23;32.33;;;2.40;93.90;;;;;;5033495;28;20397;-85
2022/12/10 04:43:01;;;;;;;64.03;32.40;;;2.40;93.90;;;;;;5034545;28;20030;-85
2022/12/10 04:45:27;;;;;;;64.13;31.20;;;2.40;93.70;;;;;;5037683;28;20029;-85
2022/12/10 04:47:52;;;;;;;60.80;30.13;;;2.40;93.80;;;;;;5033687;28;20033;-85
2022/12/10 04:50:18;;;;;;;59.97;31.47;;;2.40;93.40;;;;;;5033155;28;20026;-85
2022/12/10 04:52:44;;;;;;;66.60;32.43;;;2.50;94.00;;;;;;5032274;28;20033;-85
2022/12/10 04:55:09;;;;;;;71.70;32.30;;;2.40;93.50;;;;;;5031694;28;20064;-83
2022/12/10 04:57:35;;;;;;;66.43;32.27;;;2.40;93.70;;;;;;5039406;28;20054;-85
2022/12/10 05:00:00;;;;;;;70.70;34.93;;;2.40;93.90;;;;;;5034015;28;20029;-85
2022/12/10 05:02:26;;;;;;;64.03;31.80;;;2.40;93.80;;;;;;5032685;28;20057;-86
2022/12/10 05:04:51;;;;;;;60.20;31.13;;;2.40;93.70;;;;;;5031245;28;20100;-85
2022/12/10 05:07:17;;;;;;;63.23;30.83;;;2.40;93.60;;;;;;5034981;28;20095;-86
2022/12/10 05:09:43;;;;;;;65.30;32.37;;;2.40;93.50;;;;;;5031449;28;20401;-84
2022/12/10 05:12:08;;;;;;;61.13;30.07;;;2.40;93.50;;;;;;5032882;28;20120;-85
2022/12/10 05:14:34;;;;;;;66.40;32.53;;;2.40;93.40;;;;;;5032545;28;20045;-84
2022/12/10 05:17:00;;;;;;;71.00;32.90;;;2.30;93.70;;;;;;5031981;28;20378;-85
2022/12/10 05:19:28;;;;;;;71.55;34.17;;;2.30;93.90;;;;;;5033514;28;20457;-85
2022/12/10 05:24:38;;;;;;;73.18;33.83;;;2.30;93.70;;;;;;5031472;28;20040;-84
2022/12/10 05:27:04;;;;;;;65.97;33.60;;;2.30;93.50;;;;;;5031204;28;20025;-86
2022/12/10 05:29:31;;;;;;;74.13;35.08;;;2.30;93.70;;;;;;5031361;28;20273;-83
2022/12/10 05:31:57;;;;;;;73.60;34.53;;;2.30;94.00;;;;;;5031446;28;20021;-86
2022/12/10 05:34:22;;;;;;;75.13;35.77;;;2.30;94.00;;;;;;5031991;28;20094;-85
2022/12/10 05:36:48;;;;;;;80.35;36.30;;;2.30;93.90;;;;;;5031475;28;20382;-85
2022/12/10 05:39:14;;;;;;;72.85;34.03;;;2.20;94.30;;;;;;5030930;28;20033;-86
2022/12/10 05:41:40;;;;;;;71.20;33.17;;;2.20;94.30;;;;;;5030968;28;20025;-86
2022/12/10 05:44:07;;;;;;;79.25;35.80;;;2.30;94.40;;;;;;5031149;28;20076;-83
2022/12/10 05:46:34;;;;;;;76.38;36.13;;;2.30;94.10;;;;;;5030892;28;20029;-84
2022/12/10 05:49:02;;;;;;;85.70;37.80;;;2.30;94.20;;;;;;5030686;28;20021;-86
2022/12/10 05:51:32;;;;;;;79.07;37.92;;;2.30;94.20;;;;;;5030863;28;20068;-83
2022/12/10 05:53:58;;;;;;;77.10;35.03;;;2.20;94.20;;;;;;5031124;28;20017;-88
2022/12/10 05:56:25;;;;;;;79.82;36.95;;;2.30;94.20;;;;;;5031651;28;20034;-86
2022/12/10 05:58:51;;;;;;;;;;;2.40;94.30;;;;;;5031763;28;20026;-82
2022/12/10 06:01:23;;;;;;;68.87;33.43;;;2.30;94.10;;;;;;5029314;28;19917;-82
2022/12/10 06:03:50;;;;;;;76.13;35.13;;;2.20;94.20;;;;;;5028577;28;20064;-79
2022/12/10 06:06:21;;;;;;;76.35;36.30;;;2.30;94.30;;;;;;5026956;28;20513;-78
2022/12/10 06:08:47;;;;;;;74.53;35.08;;;2.30;94.40;;;;;;5028275;28;20025;-83
2022/12/10 06:11:12;;;;;;;75.37;35.10;;;2.20;94.30;;;;;;5028159;28;20036;-80
2022/12/10 06:13:38;;;;;;;77.07;35.57;;;2.30;94.20;;;;;;5029366;28;20114;-85
2022/12/10 06:16:09;;;;;;;67.33;33.57;;;2.30;94.20;;;;;;5010064;28;20034;-84
2022/12/10 06:18:35;;;;;;;75.05;33.75;;;2.30;94.00;;;;;;5007961;28;20347;-83
2022/12/10 06:21:14;;;;;;;68.03;33.10;;;2.30;94.40;;;;;;5009856;28;20034;-82
2022/12/10 06:23:40;;;;;;;68.03;32.55;;;2.20;94.20;;;;;;5026939;28;20506;-84
2022/12/10 06:26:07;;;;;;;;;;;2.30;94.00;;;;;;5029448;28;20497;-83
2022/12/10 06:28:33;;;;;;;67.75;32.20;;;2.30;93.70;;;;;;5029019;28;19931;-87
2022/12/10 06:30:59;;;;;;;67.10;32.45;;;2.20;93.90;;;;;;5023226;28;20037;-79
2022/12/10 06:33:25;;;;;;;61.97;31.20;;;2.20;93.90;;;;;;5030135;28;20029;-86
2022/12/10 06:35:51;;;;;;;66.10;32.83;;;2.20;93.70;;;;;;5030362;28;20043;-84
2022/12/10 06:38:17;;;;;;;60.97;31.35;;;2.20;93.80;;;;;;5038406;28;20792;-83
2022/12/10 06:40:42;;;;;;;60.75;31.27;;;2.30;93.80;;;;;;5028322;28;20588;-84
2022/12/10 06:43:08;;;;;;;61.07;30.57;;;2.20;93.40;;;;;;5031081;28;20034;-84
2022/12/10 06:45:37;;;;;;;65.28;33.20;;;2.20;93.50;;;;;;5045691;28;20029;-83
2022/12/10 06:48:03;;;;;;;66.88;31.83;;;2.20;93.40;;;;;;5036662;28;20846;-85
2022/12/10 06:50:28;;;;;;;67.13;33.70;;;2.20;93.40;;;;;;5036720;28;20112;-84
2022/12/10 06:52:54;;;;;;;60.23;30.20;;;2.20;93.00;;;;;;5034868;28;20039;-82
2022/12/10 06:55:20;;;;;;;60.08;31.38;;;2.20;92.90;;;;;;5029913;28;20033;-85
2022/12/10 06:57:45;;;;;;;69.57;34.67;;;2.20;92.90;;;;;;5031856;28;20432;-86
2022/12/10 07:00:11;;;;;;;66.50;32.53;;;2.20;92.80;;;;;;5028817;28;20037;-84
2022/12/10 07:02:37;;;;;;;64.57;31.23;;;2.20;93.00;;;;;;5027644;28;20405;-83
2022/12/10 07:05:03;;;;;;;67.63;33.43;;;2.20;93.10;;;;;;5026410;28;20021;-84
2022/12/10 07:07:28;;;;;;;65.30;32.75;;;2.20;93.10;;;;;;5029006;28;20119;-84
2022/12/10 07:09:54;;;;;;;62.00;29.43;;;2.10;92.80;;;;;;5030082;28;20042;-84
2022/12/10 07:12:19;;;;;;;69.30;33.77;;;2.10;93.00;;;;;;5030230;28;20033;-81
2022/12/10 07:14:45;;;;;;;71.77;34.43;;;2.10;92.90;;;;;;5028822;28;20033;-86
2022/12/10 07:17:11;;;;;;;67.53;34.33;;;2.20;93.00;;;;;;5029884;28;20026;-85
2022/12/10 07:19:36;;;;;;;75.90;35.33;;;2.20;93.10;;;;;;5029656;28;20090;-84
2022/12/10 07:22:02;;;;;;;74.22;36.67;;;2.20;93.10;;;;;;5036208;28;20374;-85
2022/12/10 07:24:27;;;;;;;73.13;37.72;;;2.20;93.00;;;;;;5028226;28;20048;-76
2022/12/10 07:26:53;;;;;;;70.10;35.70;;;2.10;93.10;;;;;;5027347;28;20735;-85
2022/12/10 07:29:21;;;;;;;75.50;37.30;;;2.10;93.00;;;;;;5042236;28;20032;-88
2022/12/10 07:31:48;;;;;;;82.55;36.60;;;2.20;93.00;;;;;;5043482;28;20022;-85
2022/12/10 07:34:14;;;;;;;82.80;37.40;;;2.20;93.10;;;;;;5034748;28;20025;-85
2022/12/10 07:36:40;;;;;;;71.32;35.25;;;2.20;92.90;;;;;;5034626;28;20041;-75
2022/12/10 07:39:07;;;;;;;71.03;34.70;;;2.20;92.60;;;;;;5033183;28;20095;-75
2022/12/10 07:41:35;;;;;;;75.60;36.60;;;2.30;92.70;;;;;;5033030;28;20036;-77
2022/12/10 07:44:02;;;;;;;72.85;34.70;;;2.20;92.70;;;;;;5033286;28;20159;-78
2022/12/10 07:46:29;;;;;;;;;;;2.20;92.50;;;;;;5031597;28;20029;-74
2022/12/10 07:48:55;;;;;;;74.93;35.22;;;2.20;92.30;;;;;;5027188;28;19921;-75
2022/12/10 07:51:22;;;;;;;69.93;33.80;;;2.10;92.70;;;;;;5029419;28;20033;-74
2022/12/10 07:53:50;;;;;;;74.38;34.00;;;2.20;92.50;;;;;;5028926;28;20412;-74
2022/12/10 07:56:16;;;;;;;74.68;35.45;;;2.20;92.60;;;;;;5029368;28;20037;-75
2022/12/10 07:58:43;;;;;;;74.60;35.63;;;2.20;92.50;;;;;;5030941;28;20036;-74
2022/12/10 08:01:11;;;;;;;65.00;33.33;;;2.20;92.60;;;;;;5029958;28;20060;-76
2022/12/10 08:03:37;;;;;;;71.95;35.03;;;2.10;92.50;;;;;;5031796;28;20022;-75
2022/12/10 08:06:11;;;;;;;74.43;35.60;;;2.20;92.70;;;;;;5029186;28;20029;-75
2022/12/10 08:08:38;;;;;;;73.00;36.60;;;2.10;92.50;;;;;;5032389;28;20111;-76
2022/12/10 08:11:04;;;;;;;;;;;2.10;92.70;;;;;;5030641;28;20033;-76
2022/12/10 08:13:31;;;;;;;66.78;31.92;;;2.00;92.70;;;;;;5031383;28;19916;-76
2022/12/10 08:16:02;;;;;;;;;;;2.10;92.90;;;;;;5031021;28;20037;-76
2022/12/10 08:18:29;;;;;;;70.80;33.67;;;2.20;93.00;;;;;;5035712;28;19909;-76
2022/12/10 08:20:55;;;;;;;;;;;2.10;93.00;;;;;;5032336;28;20145;-76
2022/12/10 08:23:20;;;;;;;63.33;31.38;;;2.10;92.70;;;;;;5033109;28;20003;-76
2022/12/10 08:25:46;;;;;;;74.57;34.10;;;2.10;93.20;;;;;;5028702;28;20600;-74
2022/12/10 08:28:11;;;;;;;78.37;36.07;;;2.20;93.30;;;;;;5027104;28;20033;-75
2022/12/10 08:30:37;;;;;;;73.60;34.60;;;2.20;93.30;;;;;;5030774;28;20056;-75
2022/12/10 08:33:03;;;;;;;69.80;32.70;;;2.20;93.20;;;;;;5031149;28;20037;-75
2022/12/10 08:35:28;;;;;;;78.10;33.90;;;2.20;92.90;;;;;;5030112;28;20040;-75
2022/12/10 08:37:54;;;;;;;79.40;36.15;;;2.20;93.00;;;;;;5027396;28;20021;-75
2022/12/10 08:40:20;;;;;;;72.87;35.73;;;2.20;93.00;;;;;;5030848;28;20465;-72
2022/12/10 08:42:46;;;;;;;65.30;30.80;;;2.20;92.70;;;;;;5031103;28;20037;-73
2022/12/10 08:45:12;;;;;;;64.70;32.05;;;2.20;92.00;;;;;;5030820;28;20029;-72
2022/12/10 08:47:37;;;;;;;78.38;35.42;;;2.20;92.20;;;;;;5031850;28;20045;-72
2022/12/10 08:50:03;;;;;;;80.90;36.13;;;2.20;92.30;;;;;;5029917;28;20079;-75
2022/12/10 08:52:29;;;;;;;68.70;33.33;;;2.30;92.50;;;;;;5029345;28;20060;-76
2022/12/10 08:54:55;;;;;;;72.25;34.08;;;2.20;92.10;;;;;;5030809;28;20062;-75
2022/12/10 08:57:21;;;;;;;73.67;33.63;;;2.30;92.50;;;;;;5027307;28;20387;-75
2022/12/10 08:59:46;;;;;;;68.87;32.00;;;2.20;92.60;;;;;;5028958;28;20649;-77
2022/12/10 09:02:12;;;;;;;73.03;33.67;;;2.30;92.30;;;;;;5031266;28;20052;-78
2022/12/10 09:04:38;;;;;;;72.00;34.57;;;2.20;91.70;;;;;;5029090;28;20037;-77
2022/12/10 09:07:04;;;;;;;65.97;30.00;;;2.20;92.10;;;;;;5031080;28;20036;-76
2022/12/10 09:09:31;;;;;;;65.28;31.58;;;2.20;92.00;;;;;;5031210;28;20026;-77
2022/12/10 09:11:57;;;;;;;74.82;33.15;;;2.20;91.70;;;;;;5028829;28;20030;-76
2022/12/10 09:14:23;;;;;;;66.40;32.15;;;2.30;91.90;;;;;;5029085;28;20033;-76
2022/12/10 09:16:49;;;;;;;76.72;31.92;;;2.30;91.90;;;;;;5026719;28;20120;-76
2022/12/10 09:19:15;;;;;;;69.63;32.55;;;2.30;92.00;;;;;;5030968;28;20033;-75
2022/12/10 09:21:41;;;;;;;64.15;30.67;;;2.30;92.00;;;;;;5028933;28;20036;-76
2022/12/10 09:24:07;;;;;;;67.65;29.92;;;2.40;91.50;;;;;;5029770;28;20029;-75
2022/12/10 09:26:33;;;;;;;71.97;31.92;;;2.40;91.60;;;;;;5032071;28;20112;-73
2022/12/10 09:28:59;;;;;;;;;;;2.50;91.60;;;;;;5031357;28;20086;-73
2022/12/10 09:31:25;;;;;;;65.93;31.98;;;2.50;91.70;;;;;;5031194;28;19905;-75
2022/12/10 09:33:52;;;;;;;64.93;30.63;;;2.50;91.50;;;;;;5029689;28;20038;-75
2022/12/10 09:36:19;;;;;;;72.85;34.00;;;2.50;91.70;;;;;;5032099;28;20033;-74
2022/12/10 09:38:45;;;;;;;69.95;32.22;;;2.50;91.80;;;;;;5031030;28;20055;-74
2022/12/10 09:41:48;;;;;;;64.43;29.60;;;2.60;91.50;;;;;;5029460;28;20527;-74
2022/12/10 09:44:32;;;;;;;68.85;31.88;;;2.60;91.60;;;;;;5031357;28;20122;-75
2022/12/10 09:47:03;;;;;;;64.47;30.35;;;2.60;91.70;;;;;;5027957;28;20041;-74
2022/12/10 09:49:53;;;;;;;66.82;30.02;;;2.60;91.30;;;;;;5031868;28;20048;-73
2022/12/10 09:52:22;;;;;;;70.43;30.40;;;2.60;91.20;;;;;;5029650;28;20065;-74
2022/12/10 09:54:56;;;;;;;62.67;29.40;;;2.80;91.40;;;;;;5028749;28;20048;-74
2022/12/10 09:57:41;;;;;;;71.20;32.55;;;2.80;91.20;;;;;;5029752;28;20033;-74
2022/12/10 10:00:36;;;;;;;63.10;31.45;;;2.80;91.50;;;;;;5029062;28;20108;-74
2022/12/10 10:03:04;;;;;;;65.30;32.35;;;2.80;91.30;;;;;;5027167;28;20096;-73
2022/12/10 10:05:33;;;;;;;67.72;29.77;;;2.80;91.30;;;;;;5028795;28;20025;-74
2022/12/10 10:08:02;;;;;;;74.85;31.35;;;2.70;91.10;;;;;;5026550;28;20056;-75
2022/12/10 10:10:29;;;;;;;68.28;31.25;;;2.70;91.40;;;;;;5030279;28;20025;-72
2022/12/10 10:13:07;;;;;;;69.05;33.40;;;2.70;91.20;;;;;;5030706;28;20109;-74
2022/12/10 10:15:40;;;;;;;65.28;31.23;;;2.80;90.70;;;;;;5028961;28;20501;-74
2022/12/10 10:18:32;;;;;;;63.28;30.45;;;2.70;90.70;;;;;;5030025;28;20033;-73
2022/12/10 10:21:00;;;;;;;64.88;31.13;;;2.60;91.00;;;;;;5029241;28;20029;-73
2022/12/10 10:23:25;;;;;;;88.13;36.50;;;2.60;91.20;;;;;;5032080;28;20029;-74
2022/12/10 10:25:51;;;;;;;67.95;32.28;;;2.60;91.10;;;;;;5027909;28;20041;-74
2022/12/10 10:28:22;;;;;;;69.63;31.65;;;2.70;91.10;;;;;;5028063;28;20025;-73
2022/12/10 10:30:51;;;;;;;71.30;31.75;;;2.70;91.20;;;;;;5028193;28;20386;-73
2022/12/10 10:33:17;;;;;;;72.30;32.92;;;2.70;91.10;;;;;;5031226;28;20382;-74
2022/12/10 10:35:54;;;;;;;62.30;29.53;;;2.80;90.90;;;;;;5029642;28;20045;-74
2022/12/10 10:38:23;;;;;;;69.70;30.15;;;2.80;90.50;;;;;;5029244;28;20322;-74
2022/12/10 10:40:56;;;;;;;68.88;30.58;;;2.80;90.60;;;;;;5029935;28;20057;-74
2022/12/10 10:43:32;;;;;;;58.15;28.05;;;2.70;90.10;;;;;;5029313;28;20037;-73
2022/12/10 10:46:01;;;;;;;74.50;33.53;;;2.60;90.60;;;;;;5025523;28;20025;-73
2022/12/10 10:48:28;;;;;;;67.63;32.60;;;2.70;90.70;;;;;;5027351;28;20041;-74
2022/12/10 10:51:18;;;;;;;69.35;32.97;;;2.80;90.60;;;;;;5028501;28;20029;-73
2022/12/10 10:53:56;;;;;;;65.55;31.27;;;2.80;90.60;;;;;;5027258;28;20029;-74
2022/12/10 10:56:29;;;;;;;57.95;28.95;;;2.80;90.50;;;;;;5026700;28;20040;-74
2022/12/10 10:59:02;;;;;;;67.72;29.77;;;2.90;90.30;;;;;;5029040;28;20107;-73
2022/12/10 11:01:49;;;;;;;58.10;28.60;;;2.90;89.70;;;;;;5024368;28;20531;-73
2022/12/10 11:04:21;;;;;;;58.33;28.77;;;2.90;89.80;;;;;;5023841;28;20030;-73
2022/12/10 11:06:48;;;;;;;59.03;26.35;;;2.80;90.10;;;;;;5025325;28;20151;-74
2022/12/10 11:09:26;;;;;;;58.03;27.67;;;2.70;89.20;;;;;;5025694;28;20041;-73
2022/12/10 11:12:00;;;;;;;63.70;29.67;;;2.70;89.10;;;;;;5028319;28;20040;-74
2022/12/10 11:14:46;;;;;;;62.63;31.33;;;2.80;89.70;;;;;;5029929;28;20069;-74
2022/12/10 11:17:15;;;;;;;51.80;23.63;;;2.90;89.60;;;;;;5027291;28;20269;-73
2022/12/10 11:19:53;;;;;;;48.78;23.33;;;2.80;87.90;;;;;;5028577;28;20029;-73
2022/12/10 11:22:25;;;;;;;40.95;20.58;;;2.90;87.80;;;;;;5030069;28;20514;-72
2022/12/10 11:24:50;;;;;;;35.42;16.55;;;2.90;86.80;;;;;;5029346;28;20021;-74
2022/12/10 11:27:41;;;;;;;37.90;18.60;;;2.90;84.90;;;;;;5029862;28;20042;-74
2022/12/10 11:30:10;;;;;;;36.13;18.75;;;2.80;85.20;;;;;;5025578;28;20026;-75
2022/12/10 11:32:44;;;;;;;36.05;18.48;;;2.90;85.50;;;;;;5029354;28;20029;-74
2022/12/10 11:35:31;;;;;;;37.65;19.70;;;2.90;84.60;;;;;;5023964;28;20042;-72
2022/12/10 11:38:41;;;;;;;38.42;18.25;;;2.90;85.10;;;;;;5042341;28;20040;-72
2022/12/10 11:41:18;;;;;;;38.83;20.02;;;2.90;87.10;;;;;;5006709;28;20037;-72
2022/12/10 11:43:54;;;;;;;37.17;17.90;;;3.00;85.20;;;;;;5023522;28;20126;-72
2022/12/10 11:46:56;;;;;;;34.63;18.42;;;3.00;84.60;;;;;;5014082;28;20088;-72
2022/12/10 11:49:51;;;;;;;33.53;17.67;;;3.10;85.20;;;;;;5024411;28;20048;-72
2022/12/10 11:52:29;;;;;;;34.15;18.67;;;3.10;85.50;;;;;;5023312;28;20378;-72
2022/12/10 11:55:10;;;;;;;32.38;17.23;;;3.10;84.60;;;;;;5020558;28;20075;-73
2022/12/10 11:57:54;;;;;;;36.20;16.70;;;3.10;84.90;;;;;;5023709;28;20024;-72
2022/12/10 12:00:23;;;;;;;37.80;19.02;;;3.10;83.90;;;;;;5027033;28;20608;-72
2022/12/10 12:03:15;;;;;;;41.55;19.08;;;3.10;83.50;;;;;;5024813;28;20018;-71
2022/12/10 12:05:58;;;;;;;28.33;14.07;;;3.10;82.60;;;;;;5025681;28;20112;-71
2022/12/10 12:08:39;;;;;;;25.35;12.93;;;3.20;81.80;;;;;;5027837;28;20030;-71
2022/12/10 12:11:23;;;;;;;25.55;12.55;;;3.10;79.80;;;;;;5026087;28;20029;-71
2022/12/10 12:14:06;;;;;;;22.05;12.32;;;3.20;79.00;;;;;;5027668;28;20029;-71
2022/12/10 12:16:40;;;;;;;22.20;11.02;;;3.10;78.50;;;;;;5033553;28;20026;-72
2022/12/10 12:19:18;;;;;;;23.25;12.02;;;3.00;78.50;;;;;;5030804;28;20499;-72
2022/12/10 12:21:47;;;;;;;22.63;12.05;;;3.00;77.10;;;;;;5025882;28;20400;-72
2022/12/10 12:24:37;;;;;;;24.08;12.25;;;2.80;76.30;;;;;;5033369;28;20030;-72
2022/12/10 12:27:19;;;;;;;23.65;12.70;;;2.90;78.00;;;;;;5034667;28;20029;-72
2022/12/10 12:30:01;;;;;;;26.67;13.32;;;2.90;78.70;;;;;;5030743;28;20022;-72
2022/12/10 12:32:31;;;;;;;25.23;14.13;;;2.70;79.10;;;;;;5029977;28;20381;-72
2022/12/10 12:35:00;;;;;;;25.50;14.13;;;2.70;79.80;;;;;;5029431;28;20501;-73
2022/12/10 12:37:35;;;;;;;33.80;17.33;;;2.70;80.20;;;;;;5037920;28;20398;-72
2022/12/10 12:40:04;;;;;;;28.63;15.07;;;2.80;81.60;;;;;;5030402;28;20087;-73
2022/12/10 12:42:47;;;;;;;32.13;16.70;;;2.70;81.90;;;;;;5031318;28;20021;-73
2022/12/10 12:45:17;;;;;;;33.35;16.58;;;2.70;82.70;;;;;;5030720;28;20556;-72
2022/12/10 12:47:58;;;;;;;48.67;18.80;;;2.70;82.20;;;;;;5026273;28;20116;-72
2022/12/10 12:50:26;;;;;;;33.72;16.90;;;2.60;82.70;;;;;;5028164;28;20034;-72
2022/12/10 12:52:56;;;;;;;34.22;17.10;;;2.60;83.90;;;;;;5026822;28;20132;-72
2022/12/10 12:55:30;;;;;;;34.85;17.50;;;2.60;83.60;;;;;;5028928;28;20520;-72
2022/12/10 12:58:13;;;;;;;36.67;18.60;;;2.60;84.30;;;;;;5029494;28;20528;-72
2022/12/10 13:00:43;;;;;;;39.80;17.95;;;2.60;85.20;;;;;;5022144;28;20029;-72
2022/12/10 13:03:29;;;;;;;40.50;20.38;;;2.60;84.90;;;;;;5059791;28;20398;-73
2022/12/10 13:05:55;;;;;;;45.63;20.75;;;2.60;86.10;;;;;;5029992;28;20398;-75